sensor_id;sensor_type;location;lat;lon;timestamp;pressure;altitude;pressure_sealevel;temperature;humidity
52651;BME280;38537;47.226;39.702;2023-02-01T00:01:21;99949.97;;;2.51;80.38
52651;BME280;38537;47.226;39.702;2023-02-01T00:03:51;99933.41;;;2.46;80.68
52651;BME280;38537;47.226;39.702;2023-02-01T00:06:18;99920.16;;;2.38;80.61
52651;BME280;38537;47.226;39.702;2023-02-01T00:08:45;99931.28;;;2.58;81.19
52651;BME280;38537;47.226;39.702;2023-02-01T00:11:13;99929.91;;;2.61;80.46
52651;BME280;38537;47.226;39.702;2023-02-01T00:13:41;99958.38;;;2.71;80.11
52651;BME280;38537;47.226;39.702;2023-02-01T00:16:14;99941.00;;;2.71;80.29
52651;BME280;38537;47.226;39.702;2023-02-01T00:18:45;99934.06;;;2.58;80.67
52651;BME280;38537;47.226;39.702;2023-02-01T00:21:14;99934.88;;;2.59;79.80
52651;BME280;38537;47.226;39.702;2023-02-01T00:23:42;99916.34;;;2.49;80.26
52651;BME280;38537;47.226;39.702;2023-02-01T00:26:26;99937.38;;;2.65;80.97
52651;BME280;38537;47.226;39.702;2023-02-01T00:28:54;99922.44;;;2.51;80.09
52651;BME280;38537;47.226;39.702;2023-02-01T00:31:21;99924.38;;;2.61;80.42
52651;BME280;38537;47.226;39.702;2023-02-01T00:33:49;99928.00;;;2.66;80.47
52651;BME280;38537;47.226;39.702;2023-02-01T00:36:17;99918.06;;;2.60;80.25
52651;BME280;38537;47.226;39.702;2023-02-01T00:38:44;99915.84;;;2.62;80.59
52651;BME280;38537;47.226;39.702;2023-02-01T00:41:17;99937.44;;;2.75;80.36
52651;BME280;38537;47.226;39.702;2023-02-01T00:43:45;99919.19;;;2.64;80.25
52651;BME280;38537;47.226;39.702;2023-02-01T00:46:13;99887.66;;;2.45;79.62
52651;BME280;38537;47.226;39.702;2023-02-01T00:48:41;99925.28;;;2.71;80.11
52651;BME280;38537;47.226;39.702;2023-02-01T00:51:14;99926.72;;;2.79;80.25
52651;BME280;38537;47.226;39.702;2023-02-01T00:53:42;99924.22;;;2.83;80.00
52651;BME280;38537;47.226;39.702;2023-02-01T00:56:10;99905.50;;;2.80;80.15
52651;BME280;38537;47.226;39.702;2023-02-01T00:58:37;99903.56;;;2.80;79.51
52651;BME280;38537;47.226;39.702;2023-02-01T01:03:38;99898.78;;;2.65;79.25
52651;BME280;38537;47.226;39.702;2023-02-01T01:06:13;99918.94;;;2.71;79.44
52651;BME280;38537;47.226;39.702;2023-02-01T01:08:41;99891.81;;;2.48;79.68
52651;BME280;38537;47.226;39.702;2023-02-01T01:11:12;99918.00;;;2.50;79.57
52651;BME280;38537;47.226;39.702;2023-02-01T01:13:41;99898.06;;;2.33;79.08
52651;BME280;38537;47.226;39.702;2023-02-01T01:16:10;99904.16;;;2.35;79.76
52651;BME280;38537;47.226;39.702;2023-02-01T01:18:39;99907.44;;;2.32;80.18
52651;BME280;38537;47.226;39.702;2023-02-01T01:21:08;99893.84;;;2.20;80.50
52651;BME280;38537;47.226;39.702;2023-02-01T01:23:35;99905.50;;;2.32;80.73
52651;BME280;38537;47.226;39.702;2023-02-01T01:26:07;99905.19;;;2.29;80.43
52651;BME280;38537;47.226;39.702;2023-02-01T01:28:36;99916.75;;;2.26;80.79
52651;BME280;38537;47.226;39.702;2023-02-01T01:31:08;99896.84;;;2.14;80.52
52651;BME280;38537;47.226;39.702;2023-02-01T01:33:35;99906.63;;;2.36;80.57
52651;BME280;38537;47.226;39.702;2023-02-01T01:36:07;99872.09;;;2.24;81.25
52651;BME280;38537;47.226;39.702;2023-02-01T01:38:39;99913.47;;;2.76;82.37
52651;BME280;38537;47.226;39.702;2023-02-01T01:41:08;99918.63;;;2.62;80.11
52651;BME280;38537;47.226;39.702;2023-02-01T01:43:53;99897.66;;;2.56;80.92
52651;BME280;38537;47.226;39.702;2023-02-01T01:46:30;99917.25;;;2.60;80.11
52651;BME280;38537;47.226;39.702;2023-02-01T01:51:50;99924.91;;;2.53;80.67
52651;BME280;38537;47.226;39.702;2023-02-01T01:56:57;99936.81;;;2.63;80.09
52651;BME280;38537;47.226;39.702;2023-02-01T01:59:26;99940.66;;;2.62;80.46
52651;BME280;38537;47.226;39.702;2023-02-01T02:01:54;99937.19;;;2.82;80.40
52651;BME280;38537;47.226;39.702;2023-02-01T02:04:23;99912.09;;;2.84;80.03
52651;BME280;38537;47.226;39.702;2023-02-01T02:06:59;99914.31;;;2.82;80.02
52651;BME280;38537;47.226;39.702;2023-02-01T02:09:28;99913.47;;;2.76;79.89
52651;BME280;38537;47.226;39.702;2023-02-01T02:11:55;99938.59;;;2.80;79.02
52651;BME280;38537;47.226;39.702;2023-02-01T02:14:23;99928.91;;;2.77;79.26
52651;BME280;38537;47.226;39.702;2023-02-01T02:28:24;99923.09;;;2.73;79.79
52651;BME280;38537;47.226;39.702;2023-02-01T02:37:12;99926.16;;;2.77;79.94
52651;BME280;38537;47.226;39.702;2023-02-01T02:42:33;99928.72;;;2.47;79.33
52651;BME280;38537;47.226;39.702;2023-02-01T02:46:17;99911.75;;;2.23;79.89
52651;BME280;38537;47.226;39.702;2023-02-01T02:48:47;99912.22;;;2.10;80.47
52651;BME280;38537;47.226;39.702;2023-02-01T02:51:23;99918.78;;;2.03;81.09
52651;BME280;38537;47.226;39.702;2023-02-01T02:54:15;99912.38;;;1.93;81.18
52651;BME280;38537;47.226;39.702;2023-02-01T02:57:04;99912.00;;;1.84;81.32
52651;BME280;38537;47.226;39.702;2023-02-01T02:59:51;99926.34;;;1.86;81.91
52651;BME280;38537;47.226;39.702;2023-02-01T03:02:39;99919.75;;;1.87;81.60
52651;BME280;38537;47.226;39.702;2023-02-01T03:05:25;99925.25;;;1.87;81.98
52651;BME280;38537;47.226;39.702;2023-02-01T03:08:09;99937.44;;;1.96;82.64
52651;BME280;38537;47.226;39.702;2023-02-01T03:13:40;99917.88;;;1.93;82.90
52651;BME280;38537;47.226;39.702;2023-02-01T03:16:24;99913.72;;;1.90;83.35
52651;BME280;38537;47.226;39.702;2023-02-01T03:19:16;99930.09;;;2.07;83.77
52651;BME280;38537;47.226;39.702;2023-02-01T03:22:01;99915.41;;;1.96;83.21
52651;BME280;38537;47.226;39.702;2023-02-01T03:24:50;99930.09;;;2.07;82.95
52651;BME280;38537;47.226;39.702;2023-02-01T03:27:32;99922.72;;;2.18;83.76
52651;BME280;38537;47.226;39.702;2023-02-01T03:32:34;99937.06;;;2.20;83.14
52651;BME280;38537;47.226;39.702;2023-02-01T03:41:08;99932.44;;;2.25;82.65
52651;BME280;38537;47.226;39.702;2023-02-01T03:44:08;99948.53;;;2.44;82.99
52651;BME280;38537;47.226;39.702;2023-02-01T03:46:52;99931.59;;;2.25;82.88
52651;BME280;38537;47.226;39.702;2023-02-01T03:49:40;99941.53;;;2.26;82.42
52651;BME280;38537;47.226;39.702;2023-02-01T03:52:13;99945.94;;;2.27;82.67
52651;BME280;38537;47.226;39.702;2023-02-01T03:54:42;99949.84;;;2.31;82.43
52651;BME280;38537;47.226;39.702;2023-02-01T03:57:14;99969.44;;;2.34;82.28
52651;BME280;38537;47.226;39.702;2023-02-01T03:59:44;99974.00;;;2.24;82.52
52651;BME280;38537;47.226;39.702;2023-02-01T04:02:12;99971.47;;;2.12;81.88
52651;BME280;38537;47.226;39.702;2023-02-01T04:04:39;99968.50;;;2.24;82.02
52651;BME280;38537;47.226;39.702;2023-02-01T04:07:07;99943.41;;;2.15;82.88
52651;BME280;38537;47.226;39.702;2023-02-01T04:09:34;99950.28;;;2.18;82.46
52651;BME280;38537;47.226;39.702;2023-02-01T04:12:01;99966.84;;;2.23;82.48
52651;BME280;38537;47.226;39.702;2023-02-01T04:14:29;99977.09;;;2.27;82.33
52651;BME280;38537;47.226;39.702;2023-02-01T04:16:56;99964.03;;;2.13;82.59
52651;BME280;38537;47.226;39.702;2023-02-01T04:19:23;99974.22;;;2.17;82.59
52651;BME280;38537;47.226;39.702;2023-02-01T04:21:51;99961.16;;;2.02;82.50
52651;BME280;38537;47.226;39.702;2023-02-01T04:24:18;99977.47;;;2.09;82.89
52651;BME280;38537;47.226;39.702;2023-02-01T04:26:45;99979.97;;;2.11;82.76
52651;BME280;38537;47.226;39.702;2023-02-01T04:29:12;99987.72;;;2.14;82.66
52651;BME280;38537;47.226;39.702;2023-02-01T04:31:40;99970.31;;;2.08;82.84
52651;BME280;38537;47.226;39.702;2023-02-01T04:34:08;99958.72;;;2.06;82.60
52651;BME280;38537;47.226;39.702;2023-02-01T04:36:35;99968.84;;;2.00;82.80
52651;BME280;38537;47.226;39.702;2023-02-01T04:39:02;99962.22;;;1.96;82.29
52651;BME280;38537;47.226;39.702;2023-02-01T04:41:30;99974.38;;;2.00;82.27
52651;BME280;38537;47.226;39.702;2023-02-01T04:43:57;99967.94;;;1.90;82.24
52651;BME280;38537;47.226;39.702;2023-02-01T04:46:24;99985.69;;;2.04;81.77
52651;BME280;38537;47.226;39.702;2023-02-01T04:48:52;99979.03;;;2.00;82.17
52651;BME280;38537;47.226;39.702;2023-02-01T04:51:19;99976.53;;;1.98;81.87
52651;BME280;38537;47.226;39.702;2023-02-01T04:53:46;99980.97;;;1.99;81.65
52651;BME280;38537;47.226;39.702;2023-02-01T04:56:13;99989.84;;;2.06;81.53
52651;BME280;38537;47.226;39.702;2023-02-01T04:58:40;100000.34;;;2.10;81.41
52651;BME280;38537;47.226;39.702;2023-02-01T05:01:07;99994.25;;;2.08;81.27
52651;BME280;38537;47.226;39.702;2023-02-01T05:03:35;100000.28;;;2.04;81.15
52651;BME280;38537;47.226;39.702;2023-02-01T05:06:02;99983.69;;;1.94;80.77
52651;BME280;38537;47.226;39.702;2023-02-01T05:08:32;100001.50;;;2.14;80.89
52651;BME280;38537;47.226;39.702;2023-02-01T05:10:59;99992.72;;;2.22;80.75
52651;BME280;38537;47.226;39.702;2023-02-01T05:13:29;99985.13;;;2.34;80.67
52651;BME280;38537;47.226;39.702;2023-02-01T05:16:16;99990.22;;;2.52;80.01
52651;BME280;38537;47.226;39.702;2023-02-01T05:18:43;99987.38;;;2.42;79.14
52651;BME280;38537;47.226;39.702;2023-02-01T05:21:10;99974.00;;;2.24;79.06
52651;BME280;38537;47.226;39.702;2023-02-01T05:23:37;100009.69;;;2.40;78.58
52651;BME280;38537;47.226;39.702;2023-02-01T05:26:25;100006.66;;;2.42;79.05
52651;BME280;38537;47.226;39.702;2023-02-01T05:28:53;99981.19;;;2.25;79.30
52651;BME280;38537;47.226;39.702;2023-02-01T05:31:20;100010.50;;;2.41;78.97
52651;BME280;38537;47.226;39.702;2023-02-01T05:33:48;99991.03;;;2.16;78.72
52651;BME280;38537;47.226;39.702;2023-02-01T05:36:15;99991.56;;;2.13;78.47
52651;BME280;38537;47.226;39.702;2023-02-01T05:38:42;100014.25;;;2.25;78.60
52651;BME280;38537;47.226;39.702;2023-02-01T05:41:10;100021.50;;;2.36;78.63
52651;BME280;38537;47.226;39.702;2023-02-01T05:43:37;100018.03;;;2.19;78.16
52651;BME280;38537;47.226;39.702;2023-02-01T05:46:04;100018.88;;;2.19;78.30
52651;BME280;38537;47.226;39.702;2023-02-01T05:48:31;100000.88;;;2.06;78.57
52651;BME280;38537;47.226;39.702;2023-02-01T05:51:00;100026.19;;;2.35;79.08
52651;BME280;38537;47.226;39.702;2023-02-01T05:53:27;100022.88;;;2.38;78.74
52651;BME280;38537;47.226;39.702;2023-02-01T05:55:54;99998.91;;;2.34;78.38
52651;BME280;38537;47.226;39.702;2023-02-01T05:58:21;100022.78;;;2.60;78.14
52651;BME280;38537;47.226;39.702;2023-02-01T06:00:48;99984.66;;;2.47;78.12
52651;BME280;38537;47.226;39.702;2023-02-01T06:03:16;100006.84;;;2.67;78.16
52651;BME280;38537;47.226;39.702;2023-02-01T06:05:44;100028.28;;;2.97;77.48
52651;BME280;38537;47.226;39.702;2023-02-01T06:08:12;100035.00;;;3.17;76.88
52651;BME280;38537;47.226;39.702;2023-02-01T06:10:39;100023.25;;;3.36;77.07
52651;BME280;38537;47.226;39.702;2023-02-01T06:13:06;100027.09;;;3.35;75.78
52651;BME280;38537;47.226;39.702;2023-02-01T06:15:35;100027.91;;;3.31;74.99
52651;BME280;38537;47.226;39.702;2023-02-01T06:18:04;100045.13;;;3.06;74.29
52651;BME280;38537;47.226;39.702;2023-02-01T06:20:31;100026.19;;;2.72;74.56
52651;BME280;38537;47.226;39.702;2023-02-01T06:22:58;100038.25;;;2.66;75.12
52651;BME280;38537;47.226;39.702;2023-02-01T06:25:25;100026.78;;;2.42;75.59
52651;BME280;38537;47.226;39.702;2023-02-01T06:27:53;100028.22;;;2.50;76.29
52651;BME280;38537;47.226;39.702;2023-02-01T06:30:20;100050.44;;;2.70;76.42
52651;BME280;38537;47.226;39.702;2023-02-01T06:32:50;100051.38;;;2.86;77.09
52651;BME280;38537;47.226;39.702;2023-02-01T06:35:21;100052.53;;;2.95;76.51
52651;BME280;38537;47.226;39.702;2023-02-01T06:37:48;100058.56;;;2.92;75.86
52651;BME280;38537;47.226;39.702;2023-02-01T06:40:15;100053.06;;;2.92;75.98
52651;BME280;38537;47.226;39.702;2023-02-01T06:42:42;100053.63;;;2.94;75.10
52651;BME280;38537;47.226;39.702;2023-02-01T06:45:10;100047.81;;;2.91;74.92
52651;BME280;38537;47.226;39.702;2023-02-01T06:47:37;100068.16;;;3.22;74.93
52651;BME280;38537;47.226;39.702;2023-02-01T06:50:05;100056.81;;;3.18;74.83
52651;BME280;38537;47.226;39.702;2023-02-01T06:52:33;100037.81;;;3.22;74.17
52651;BME280;38537;47.226;39.702;2023-02-01T06:55:00;100036.72;;;3.28;73.68
52651;BME280;38537;47.226;39.702;2023-02-01T06:57:29;100074.97;;;3.61;73.64
52651;BME280;38537;47.226;39.702;2023-02-01T06:59:58;100050.91;;;3.57;72.41
52651;BME280;38537;47.226;39.702;2023-02-01T07:02:25;100029.91;;;3.46;72.47
52651;BME280;38537;47.226;39.702;2023-02-01T07:04:52;100056.47;;;3.62;72.62
52651;BME280;38537;47.226;39.702;2023-02-01T07:07:23;100059.53;;;3.65;72.46
52651;BME280;38537;47.226;39.702;2023-02-01T07:09:51;100061.47;;;3.65;71.96
52651;BME280;38537;47.226;39.702;2023-02-01T07:12:19;100076.69;;;3.77;71.91
52651;BME280;38537;47.226;39.702;2023-02-01T07:14:46;100060.63;;;3.64;72.14
52651;BME280;38537;47.226;39.702;2023-02-01T07:17:13;100057.59;;;3.66;72.28
52651;BME280;38537;47.226;39.702;2023-02-01T07:19:40;100049.34;;;3.81;71.93
52651;BME280;38537;47.226;39.702;2023-02-01T07:22:07;100075.38;;;4.00;71.11
52651;BME280;38537;47.226;39.702;2023-02-01T07:24:34;100067.88;;;3.86;71.06
52651;BME280;38537;47.226;39.702;2023-02-01T07:27:02;100050.91;;;3.57;70.61
52651;BME280;38537;47.226;39.702;2023-02-01T07:29:29;100048.59;;;3.33;70.79
52651;BME280;38537;47.226;39.702;2023-02-01T07:31:56;100046.34;;;3.25;71.35
52651;BME280;38537;47.226;39.702;2023-02-01T07:34:23;100069.66;;;3.44;71.58
52651;BME280;38537;47.226;39.702;2023-02-01T07:36:51;100061.84;;;3.31;71.42
52651;BME280;38537;47.226;39.702;2023-02-01T07:39:18;100065.75;;;3.40;71.56
52651;BME280;38537;47.226;39.702;2023-02-01T07:41:45;100057.13;;;3.22;71.83
52651;BME280;38537;47.226;39.702;2023-02-01T07:44:13;100060.19;;;3.30;72.06
52651;BME280;38537;47.226;39.702;2023-02-01T07:46:40;100064.56;;;3.21;71.65
52651;BME280;38537;47.226;39.702;2023-02-01T07:49:08;100051.25;;;3.13;71.78
52651;BME280;38537;47.226;39.702;2023-02-01T07:51:35;100079.72;;;3.19;72.07
52651;BME280;38537;47.226;39.702;2023-02-01T07:54:02;100059.34;;;3.25;72.50
52651;BME280;38537;47.226;39.702;2023-02-01T07:56:29;100062.38;;;3.23;72.57
52651;BME280;38537;47.226;39.702;2023-02-01T07:58:58;100062.13;;;3.35;72.04
52651;BME280;38537;47.226;39.702;2023-02-01T08:01:28;100074.06;;;3.46;72.06
52651;BME280;38537;47.226;39.702;2023-02-01T08:03:58;100067.97;;;3.38;71.28
52651;BME280;38537;47.226;39.702;2023-02-01T08:06:31;100068.50;;;3.35;72.05
52651;BME280;38537;47.226;39.702;2023-02-01T08:08:59;100066.81;;;3.34;72.18
52651;BME280;38537;47.226;39.702;2023-02-01T08:11:26;100057.94;;;3.27;72.37
52651;BME280;38537;47.226;39.702;2023-02-01T08:13:54;100060.72;;;3.27;72.71
52651;BME280;38537;47.226;39.702;2023-02-01T08:16:22;100086.47;;;3.43;71.93
52651;BME280;38537;47.226;39.702;2023-02-01T08:18:51;100094.00;;;3.58;71.99
52651;BME280;38537;47.226;39.702;2023-02-01T08:21:23;100076.53;;;3.47;71.30
52651;BME280;38537;47.226;39.702;2023-02-01T08:23:51;100091.69;;;3.39;71.52
52651;BME280;38537;47.226;39.702;2023-02-01T08:26:23;100093.88;;;3.37;71.25
52651;BME280;38537;47.226;39.702;2023-02-01T08:28:53;100087.56;;;3.47;71.31
52651;BME280;38537;47.226;39.702;2023-02-01T08:31:23;100090.44;;;3.72;71.48
52651;BME280;38537;47.226;39.702;2023-02-01T08:34:01;100060.91;;;3.68;70.83
52651;BME280;38537;47.226;39.702;2023-02-01T08:36:31;100056.81;;;3.86;70.73
52651;BME280;38537;47.226;39.702;2023-02-01T08:38:58;100092.81;;;4.11;70.59
52651;BME280;38537;47.226;39.702;2023-02-01T08:41:28;100059.13;;;4.24;70.91
52651;BME280;38537;47.226;39.702;2023-02-01T08:43:57;100091.72;;;4.37;69.44
52651;BME280;38537;47.226;39.702;2023-02-01T08:46:26;100091.72;;;4.27;69.22
52651;BME280;38537;47.226;39.702;2023-02-01T08:48:53;100082.03;;;4.09;69.60
52651;BME280;38537;47.226;39.702;2023-02-01T08:51:22;100087.84;;;4.23;69.66
52651;BME280;38537;47.226;39.702;2023-02-01T08:53:50;100066.28;;;4.15;69.67
52651;BME280;38537;47.226;39.702;2023-02-01T08:56:18;100070.16;;;4.34;69.57
52651;BME280;38537;47.226;39.702;2023-02-01T08:58:46;100060.78;;;4.35;69.37
52651;BME280;38537;47.226;39.702;2023-02-01T09:01:14;100055.81;;;4.32;69.25
52651;BME280;38537;47.226;39.702;2023-02-01T09:03:43;100077.09;;;4.42;68.69
52651;BME280;38537;47.226;39.702;2023-02-01T09:06:12;100042.00;;;4.32;69.06
52651;BME280;38537;47.226;39.702;2023-02-01T09:08:40;100034.22;;;4.14;68.18
52651;BME280;38537;47.226;39.702;2023-02-01T09:11:13;100056.06;;;4.05;68.34
52651;BME280;38537;47.226;39.702;2023-02-01T09:13:40;100060.50;;;4.27;69.26
52651;BME280;38537;47.226;39.702;2023-02-01T09:16:08;100041.72;;;4.39;69.21
52651;BME280;38537;47.226;39.702;2023-02-01T09:18:37;100061.38;;;4.53;68.65
52651;BME280;38537;47.226;39.702;2023-02-01T09:21:22;100070.47;;;4.78;68.32
52651;BME280;38537;47.226;39.702;2023-02-01T09:23:53;100058.56;;;4.83;68.37
52651;BME280;38537;47.226;39.702;2023-02-01T09:26:20;100053.88;;;4.78;67.38
52651;BME280;38537;47.226;39.702;2023-02-01T09:28:57;100028.16;;;4.73;67.49
52651;BME280;38537;47.226;39.702;2023-02-01T09:31:24;100032.59;;;4.74;67.56
52651;BME280;38537;47.226;39.702;2023-02-01T09:33:51;100035.63;;;4.67;67.24
52651;BME280;38537;47.226;39.702;2023-02-01T09:36:18;100026.78;;;4.55;67.17
52651;BME280;38537;47.226;39.702;2023-02-01T09:38:46;100014.63;;;4.51;67.50
52651;BME280;38537;47.226;39.702;2023-02-01T09:46:39;100025.69;;;4.46;67.02
52651;BME280;38537;47.226;39.702;2023-02-01T09:49:13;100018.22;;;4.21;67.04
52651;BME280;38537;47.226;39.702;2023-02-01T09:51:46;100017.97;;;4.33;68.06
52651;BME280;38537;47.226;39.702;2023-02-01T09:54:27;100030.66;;;4.44;67.81
52651;BME280;38537;47.226;39.702;2023-02-01T09:57:38;100021.81;;;4.52;68.56
52651;BME280;38537;47.226;39.702;2023-02-01T10:00:11;100022.38;;;4.49;66.94
52651;BME280;38537;47.226;39.702;2023-02-01T10:02:42;100001.94;;;4.30;67.15
52651;BME280;38537;47.226;39.702;2023-02-01T10:05:16;100009.66;;;4.33;66.90
52651;BME280;38537;47.226;39.702;2023-02-01T10:08:20;100036.19;;;4.29;66.73
52651;BME280;38537;47.226;39.702;2023-02-01T10:11:00;100033.66;;;3.97;67.06
52651;BME280;38537;47.226;39.702;2023-02-01T10:13:52;100044.41;;;3.88;67.47
52651;BME280;38537;47.226;39.702;2023-02-01T10:19:17;100035.91;;;3.32;69.27
52651;BME280;38537;47.226;39.702;2023-02-01T10:22:01;100025.38;;;3.19;69.44
52651;BME280;38537;47.226;39.702;2023-02-01T10:24:42;100030.91;;;3.24;69.85
52651;BME280;38537;47.226;39.702;2023-02-01T10:27:22;100029.59;;;3.37;70.27
52651;BME280;38537;47.226;39.702;2023-02-01T10:29:58;100021.06;;;3.43;70.13
52651;BME280;38537;47.226;39.702;2023-02-01T10:32:32;100028.84;;;3.57;70.04
52651;BME280;38537;47.226;39.702;2023-02-01T10:35:17;100014.97;;;3.47;69.69
52651;BME280;38537;47.226;39.702;2023-02-01T10:37:46;100003.13;;;3.41;69.19
52651;BME280;38537;47.226;39.702;2023-02-01T10:40:22;99999.91;;;3.79;70.00
52651;BME280;38537;47.226;39.702;2023-02-01T10:42:54;100012.38;;;4.12;69.22
52651;BME280;38537;47.226;39.702;2023-02-01T10:45:26;100012.97;;;4.40;68.41
52651;BME280;38537;47.226;39.702;2023-02-01T10:47:57;99988.09;;;4.35;67.61
52651;BME280;38537;47.226;39.702;2023-02-01T10:50:51;100022.38;;;4.64;67.39
52651;BME280;38537;47.226;39.702;2023-02-01T10:53:50;100025.13;;;4.64;66.83
52651;BME280;38537;47.226;39.702;2023-02-01T10:56:26;100016.56;;;4.35;66.45
52651;BME280;38537;47.226;39.702;2023-02-01T10:59:02;100032.31;;;4.25;65.92
52651;BME280;38537;47.226;39.702;2023-02-01T11:01:40;100029.00;;;4.23;66.73
52651;BME280;38537;47.226;39.702;2023-02-01T11:04:19;100022.91;;;4.16;66.68
52651;BME280;38537;47.226;39.702;2023-02-01T11:09:32;100017.66;;;4.19;67.99
52651;BME280;38537;47.226;39.702;2023-02-01T11:12:02;99999.69;;;4.17;67.28
52651;BME280;38537;47.226;39.702;2023-02-01T11:14:38;100013.53;;;4.47;67.72
52651;BME280;38537;47.226;39.702;2023-02-01T11:20:04;99997.47;;;4.39;66.24
52651;BME280;38537;47.226;39.702;2023-02-01T11:22:32;100016.28;;;4.47;66.61
52651;BME280;38537;47.226;39.702;2023-02-01T11:25:08;99994.44;;;4.45;67.13
52651;BME280;38537;47.226;39.702;2023-02-01T11:27:37;99988.38;;;4.38;66.62
52651;BME280;38537;47.226;39.702;2023-02-01T11:30:35;99978.69;;;4.51;67.43
52651;BME280;38537;47.226;39.702;2023-02-01T11:33:04;100008.53;;;4.64;66.82
52651;BME280;38537;47.226;39.702;2023-02-01T11:35:35;100009.91;;;4.72;66.58
52651;BME280;38537;47.226;39.702;2023-02-01T11:40:45;100014.28;;;5.03;66.74
52651;BME280;38537;47.226;39.702;2023-02-01T11:43:24;99996.56;;;5.04;65.74
52651;BME280;38537;47.226;39.702;2023-02-01T11:46:00;100005.31;;;5.37;66.74
52651;BME280;38537;47.226;39.702;2023-02-01T11:48:30;100003.88;;;5.44;65.69
52651;BME280;38537;47.226;39.702;2023-02-01T11:51:26;100026.44;;;5.82;66.56
52651;BME280;38537;47.226;39.702;2023-02-01T11:54:19;99993.47;;;5.80;65.24
52651;BME280;38537;47.226;39.702;2023-02-01T12:05:25;100026.00;;;5.60;63.86
52651;BME280;38537;47.226;39.702;2023-02-01T12:11:12;100016.41;;;5.27;63.48
52651;BME280;38537;47.226;39.702;2023-02-01T12:16:18;100005.13;;;5.13;64.04
52651;BME280;38537;47.226;39.702;2023-02-01T12:34:55;100023.44;;;4.89;64.09
52651;BME280;38537;47.226;39.702;2023-02-01T12:43:35;100017.88;;;5.73;64.53
52651;BME280;38537;47.226;39.702;2023-02-01T12:46:12;100030.88;;;5.83;62.69
52651;BME280;38537;47.226;39.702;2023-02-01T12:49:10;100049.94;;;5.95;62.31
52651;BME280;38537;47.226;39.702;2023-02-01T12:51:41;100045.88;;;5.72;62.31
52651;BME280;38537;47.226;39.702;2023-02-01T12:54:31;100041.78;;;5.59;62.64
52651;BME280;38537;47.226;39.702;2023-02-01T12:57:04;100011.44;;;5.24;63.03
52651;BME280;38537;47.226;39.702;2023-02-01T12:59:38;100038.81;;;5.40;63.60
52651;BME280;38537;47.226;39.702;2023-02-01T13:05:03;100039.69;;;5.21;62.58
52651;BME280;38537;47.226;39.702;2023-02-01T13:08:21;100027.00;;;5.04;63.64
52651;BME280;38537;47.226;39.702;2023-02-01T13:16:44;100030.06;;;4.93;64.03
52651;BME280;38537;47.226;39.702;2023-02-01T13:19:00;100030.06;;;4.88;64.59
52651;BME280;38537;47.226;39.702;2023-02-01T13:21:34;100017.34;;;4.81;64.79
52651;BME280;38537;47.226;39.702;2023-02-01T13:24:03;100028.97;;;4.78;64.64
52651;BME280;38537;47.226;39.702;2023-02-01T13:26:31;100030.38;;;4.56;64.51
52651;BME280;38537;47.226;39.702;2023-02-01T13:29:00;100043.38;;;4.65;64.62
52651;BME280;38537;47.226;39.702;2023-02-01T13:31:54;100048.63;;;4.72;65.24
52651;BME280;38537;47.226;39.702;2023-02-01T13:37:48;100047.50;;;4.58;64.25
52651;BME280;38537;47.226;39.702;2023-02-01T13:43:11;100045.31;;;4.50;65.46
52651;BME280;38537;47.226;39.702;2023-02-01T13:46:04;100047.25;;;4.54;65.68
52651;BME280;38537;47.226;39.702;2023-02-01T13:48:40;100053.31;;;4.41;65.81
52651;BME280;38537;47.226;39.702;2023-02-01T13:51:08;100043.09;;;4.26;65.88
52651;BME280;38537;47.226;39.702;2023-02-01T13:53:37;100055.81;;;4.32;65.69
52651;BME280;38537;47.226;39.702;2023-02-01T13:56:16;100024.28;;;4.13;65.81
52651;BME280;38537;47.226;39.702;2023-02-01T13:58:46;100044.44;;;4.13;65.96
52651;BME280;38537;47.226;39.702;2023-02-01T14:19:23;100080.81;;;3.80;67.48
52651;BME280;38537;47.226;39.702;2023-02-01T14:21:56;100057.59;;;3.66;67.91
52651;BME280;38537;47.226;39.702;2023-02-01T14:24:34;100072.56;;;3.85;67.79
52651;BME280;38537;47.226;39.702;2023-02-01T14:29:42;100082.00;;;3.99;67.74
52651;BME280;38537;47.226;39.702;2023-02-01T14:32:21;100088.38;;;4.15;67.85
52651;BME280;38537;47.226;39.702;2023-02-01T14:34:53;100077.88;;;4.12;67.55
52651;BME280;38537;47.226;39.702;2023-02-01T14:37:26;100091.69;;;4.17;66.80
52651;BME280;38537;47.226;39.702;2023-02-01T14:40:00;100086.16;;;4.07;67.17
52651;BME280;38537;47.226;39.702;2023-02-01T14:50:38;100102.22;;;4.20;67.32
52651;BME280;38537;47.226;39.702;2023-02-01T14:58:18;100091.09;;;4.00;67.51
52651;BME280;38537;47.226;39.702;2023-02-01T15:00:53;100098.88;;;4.18;68.14
52651;BME280;38537;47.226;39.702;2023-02-01T15:09:37;100113.00;;;4.37;67.79
52651;BME280;38537;47.226;39.702;2023-02-01T15:14:44;100090.91;;;4.27;66.99
52651;BME280;38537;47.226;39.702;2023-02-01T15:19:58;100111.34;;;4.36;66.97
52651;BME280;38537;47.226;39.702;2023-02-01T15:22:29;100093.97;;;4.30;67.49
52651;BME280;38537;47.226;39.702;2023-02-01T15:24:58;100110.84;;;4.49;67.07
52651;BME280;38537;47.226;39.702;2023-02-01T15:27:27;100091.78;;;4.53;67.27
52651;BME280;38537;47.226;39.702;2023-02-01T15:30:06;100108.66;;;4.71;66.52
52651;BME280;38537;47.226;39.702;2023-02-01T15:32:37;100092.59;;;4.58;66.38
52651;BME280;38537;47.226;39.702;2023-02-01T15:35:30;100104.19;;;4.55;66.24
52651;BME280;38537;47.226;39.702;2023-02-01T15:43:37;100100.91;;;4.53;66.13
52651;BME280;38537;47.226;39.702;2023-02-01T15:46:19;100090.38;;;4.45;66.62
52651;BME280;38537;47.226;39.702;2023-02-01T15:48:51;100103.94;;;4.52;66.10
52651;BME280;38537;47.226;39.702;2023-02-01T15:51:24;100103.66;;;4.48;66.97
52651;BME280;38537;47.226;39.702;2023-02-01T15:54:01;100080.41;;;4.29;66.50
52651;BME280;38537;47.226;39.702;2023-02-01T15:56:37;100102.53;;;4.44;66.32
52651;BME280;38537;47.226;39.702;2023-02-01T15:59:21;100090.91;;;4.32;66.75
52651;BME280;38537;47.226;39.702;2023-02-01T16:01:49;100105.28;;;4.39;66.63